sensor_id;sensor_type;location;lat;lon;timestamp;pressure;altitude;pressure_sealevel;temperature;humidity
34374;BME280;20637;55.770;37.592;2023-07-13T00:02:04;98771.72;;;14.53;69.52
34374;BME280;20637;55.770;37.592;2023-07-13T00:04:30;98762.75;;;14.52;69.66
34374;BME280;20637;55.770;37.592;2023-07-13T00:06:55;98767.38;;;14.52;69.47
34374;BME280;20637;55.770;37.592;2023-07-13T00:09:21;98766.72;;;14.50;69.56
34374;BME280;20637;55.770;37.592;2023-07-13T00:11:50;98773.44;;;14.47;69.69
34374;BME280;20637;55.770;37.592;2023-07-13T00:14:15;98776.59;;;14.44;69.60
34374;BME280;20637;55.770;37.592;2023-07-13T00:16:41;98771.56;;;14.41;69.95
34374;BME280;20637;55.770;37.592;2023-07-13T00:19:09;98772.19;;;14.37;69.57
34374;BME280;20637;55.770;37.592;2023-07-13T00:21:35;98767.59;;;14.30;69.72
34374;BME280;20637;55.770;37.592;2023-07-13T00:24:00;98772.19;;;14.30;69.96
34374;BME280;20637;55.770;37.592;2023-07-13T00:26:26;98775.13;;;14.28;70.44
34374;BME280;20637;55.770;37.592;2023-07-13T00:28:51;98773.88;;;14.24;70.49
34374;BME280;20637;55.770;37.592;2023-07-13T00:31:17;98771.16;;;14.24;70.48
34374;BME280;20637;55.770;37.592;2023-07-13T00:33:42;98773.06;;;14.24;70.44
34374;BME280;20637;55.770;37.592;2023-07-13T00:36:09;98770.75;;;14.21;70.55
34374;BME280;20637;55.770;37.592;2023-07-13T00:38:34;98772.41;;;14.22;70.69
34374;BME280;20637;55.770;37.592;2023-07-13T00:41:00;98765.34;;;14.21;71.13
34374;BME280;20637;55.770;37.592;2023-07-13T00:43:26;98765.09;;;14.22;70.81
34374;BME280;20637;55.770;37.592;2023-07-13T00:48:21;98771.16;;;14.24;70.65
34374;BME280;20637;55.770;37.592;2023-07-13T00:50:48;98768.84;;;14.21;71.34
34374;BME280;20637;55.770;37.592;2023-07-13T00:53:15;98772.84;;;14.19;70.99
34374;BME280;20637;55.770;37.592;2023-07-13T00:55:40;98769.94;;;14.20;71.04
34374;BME280;20637;55.770;37.592;2023-07-13T00:58:06;98766.97;;;14.22;71.35
34374;BME280;20637;55.770;37.592;2023-07-13T01:00:33;98757.59;;;14.24;71.21
34374;BME280;20637;55.770;37.592;2023-07-13T01:02:59;98762.78;;;14.26;71.38
34374;BME280;20637;55.770;37.592;2023-07-13T01:05:26;98760.50;;;14.23;71.59
34374;BME280;20637;55.770;37.592;2023-07-13T01:07:53;98749.06;;;14.21;71.81
34374;BME280;20637;55.770;37.592;2023-07-13T01:10:21;98760.31;;;14.18;71.58
34374;BME280;20637;55.770;37.592;2023-07-13T01:12:48;98754.28;;;14.16;71.64
34374;BME280;20637;55.770;37.592;2023-07-13T01:17:57;98760.34;;;14.11;71.96
34374;BME280;20637;55.770;37.592;2023-07-13T01:20:24;98764.09;;;14.10;72.22
34374;BME280;20637;55.770;37.592;2023-07-13T01:22:50;98756.38;;;14.07;72.24
34374;BME280;20637;55.770;37.592;2023-07-13T01:25:16;98754.94;;;14.05;72.07
34374;BME280;20637;55.770;37.592;2023-07-13T01:27:42;98762.84;;;14.06;72.30
34374;BME280;20637;55.770;37.592;2023-07-13T01:30:08;98760.53;;;14.10;72.53
34374;BME280;20637;55.770;37.592;2023-07-13T01:32:34;98757.63;;;14.11;72.96
34374;BME280;20637;55.770;37.592;2023-07-13T01:34:59;98759.06;;;14.14;72.99
34374;BME280;20637;55.770;37.592;2023-07-13T01:37:25;98753.03;;;14.12;72.73
34374;BME280;20637;55.770;37.592;2023-07-13T01:39:51;98742.19;;;14.12;72.99
34374;BME280;20637;55.770;37.592;2023-07-13T01:42:17;98749.03;;;14.14;72.29
34374;BME280;20637;55.770;37.592;2023-07-13T01:44:43;98745.28;;;14.15;72.53
34374;BME280;20637;55.770;37.592;2023-07-13T01:47:08;98736.94;;;14.17;72.76
34374;BME280;20637;55.770;37.592;2023-07-13T01:49:34;98740.28;;;14.19;73.04
34374;BME280;20637;55.770;37.592;2023-07-13T01:51:59;98747.16;;;14.21;73.10
34374;BME280;20637;55.770;37.592;2023-07-13T01:54:24;98748.81;;;14.22;72.57
34374;BME280;20637;55.770;37.592;2023-07-13T01:56:50;98744.44;;;14.21;72.89
34374;BME280;20637;55.770;37.592;2023-07-13T01:59:15;98736.94;;;14.23;72.86
34374;BME280;20637;55.770;37.592;2023-07-13T02:01:41;98738.59;;;14.24;72.79
34374;BME280;20637;55.770;37.592;2023-07-13T02:04:06;98730.66;;;14.23;72.58
34374;BME280;20637;55.770;37.592;2023-07-13T02:06:32;98735.06;;;14.24;73.16
34374;BME280;20637;55.770;37.592;2023-07-13T02:08:58;98732.94;;;14.26;72.64
34374;BME280;20637;55.770;37.592;2023-07-13T02:11:23;98732.50;;;14.29;72.66
34374;BME280;20637;55.770;37.592;2023-07-13T02:13:50;98729.38;;;14.32;72.51
34374;BME280;20637;55.770;37.592;2023-07-13T02:16:15;98728.75;;;14.30;72.81
34374;BME280;20637;55.770;37.592;2023-07-13T02:18:41;98728.75;;;14.30;72.62
34374;BME280;20637;55.770;37.592;2023-07-13T02:21:06;98723.31;;;14.30;72.95
34374;BME280;20637;55.770;37.592;2023-07-13T02:23:32;98722.50;;;14.29;72.90
34374;BME280;20637;55.770;37.592;2023-07-13T02:25:58;98728.16;;;14.28;73.11
34374;BME280;20637;55.770;37.592;2023-07-13T02:28:24;98717.69;;;14.31;73.15
34374;BME280;20637;55.770;37.592;2023-07-13T02:30:49;98716.66;;;14.32;72.89
34374;BME280;20637;55.770;37.592;2023-07-13T02:33:15;98716.41;;;14.34;72.71
34374;BME280;20637;55.770;37.592;2023-07-13T02:35:40;98708.50;;;14.32;72.60
34374;BME280;20637;55.770;37.592;2023-07-13T02:38:06;98716.22;;;14.29;72.52
34374;BME280;20637;55.770;37.592;2023-07-13T02:40:31;98710.19;;;14.27;72.64
34374;BME280;20637;55.770;37.592;2023-07-13T02:42:59;98714.97;;;14.25;72.65
34374;BME280;20637;55.770;37.592;2023-07-13T02:45:24;98715.22;;;14.23;73.15
34374;BME280;20637;55.770;37.592;2023-07-13T02:47:50;98713.34;;;14.24;72.91
34374;BME280;20637;55.770;37.592;2023-07-13T02:50:16;98717.69;;;14.25;73.21
34374;BME280;20637;55.770;37.592;2023-07-13T02:52:42;98714.19;;;14.24;73.01
34374;BME280;20637;55.770;37.592;2023-07-13T02:55:07;98710.19;;;14.27;72.91
34374;BME280;20637;55.770;37.592;2023-07-13T02:57:33;98716.22;;;14.29;72.82
34374;BME280;20637;55.770;37.592;2023-07-13T02:59:59;98712.69;;;14.28;72.97
34374;BME280;20637;55.770;37.592;2023-07-13T03:02:25;98714.13;;;14.31;73.08
34374;BME280;20637;55.770;37.592;2023-07-13T03:04:54;98707.69;;;14.32;72.92
34374;BME280;20637;55.770;37.592;2023-07-13T03:07:20;98703.09;;;14.32;73.13
34374;BME280;20637;55.770;37.592;2023-07-13T03:09:47;98699.53;;;14.32;73.05
34374;BME280;20637;55.770;37.592;2023-07-13T03:12:13;98702.00;;;14.33;72.52
34374;BME280;20637;55.770;37.592;2023-07-13T03:14:38;98701.00;;;14.35;72.90
34374;BME280;20637;55.770;37.592;2023-07-13T03:17:06;98702.25;;;14.32;72.86
34374;BME280;20637;55.770;37.592;2023-07-13T03:19:36;98703.88;;;14.33;72.70
34374;BME280;20637;55.770;37.592;2023-07-13T03:22:02;98707.88;;;14.37;72.63
34374;BME280;20637;55.770;37.592;2023-07-13T03:24:29;98711.81;;;14.41;72.90
34374;BME280;20637;55.770;37.592;2023-07-13T03:26:56;98709.75;;;14.43;73.07
34374;BME280;20637;55.770;37.592;2023-07-13T03:29:22;98715.13;;;14.50;72.63
34374;BME280;20637;55.770;37.592;2023-07-13T03:31:48;98715.53;;;14.53;72.70
34374;BME280;20637;55.770;37.592;2023-07-13T03:34:13;98718.69;;;14.50;72.64
34374;BME280;20637;55.770;37.592;2023-07-13T03:36:39;98715.78;;;14.45;72.70
34374;BME280;20637;55.770;37.592;2023-07-13T03:39:08;98722.47;;;14.43;72.78
34374;BME280;20637;55.770;37.592;2023-07-13T03:41:54;98720.59;;;14.43;72.96
34374;BME280;20637;55.770;37.592;2023-07-13T03:44:20;98720.59;;;14.43;72.88
34374;BME280;20637;55.770;37.592;2023-07-13T03:46:50;98716.22;;;14.42;72.58
34374;BME280;20637;55.770;37.592;2023-07-13T03:49:15;98716.63;;;14.46;72.97
34374;BME280;20637;55.770;37.592;2023-07-13T03:51:41;98718.91;;;14.49;73.02
34374;BME280;20637;55.770;37.592;2023-07-13T03:54:06;98718.50;;;14.52;73.15
34374;BME280;20637;55.770;37.592;2023-07-13T03:56:32;98724.31;;;14.55;72.90
34374;BME280;20637;55.770;37.592;2023-07-13T03:58:59;98724.50;;;14.60;72.54
34374;BME280;20637;55.770;37.592;2023-07-13T04:01:25;98713.81;;;14.65;72.65
34374;BME280;20637;55.770;37.592;2023-07-13T04:03:51;98723.41;;;14.68;73.12
34374;BME280;20637;55.770;37.592;2023-07-13T04:06:17;98715.66;;;14.71;72.46
34374;BME280;20637;55.770;37.592;2023-07-13T04:08:46;98720.88;;;14.73;72.74
34374;BME280;20637;55.770;37.592;2023-07-13T04:11:12;98723.81;;;14.71;72.72
34374;BME280;20637;55.770;37.592;2023-07-13T04:13:37;98724.88;;;14.70;72.57
34374;BME280;20637;55.770;37.592;2023-07-13T04:16:03;98731.34;;;14.69;72.56
34374;BME280;20637;55.770;37.592;2023-07-13T04:18:28;98725.72;;;14.71;72.57
34374;BME280;20637;55.770;37.592;2023-07-13T04:20:54;98735.09;;;14.75;72.34
34374;BME280;20637;55.770;37.592;2023-07-13T04:23:19;98728.59;;;14.76;72.74
34374;BME280;20637;55.770;37.592;2023-07-13T04:25:48;98730.47;;;14.75;72.54
34374;BME280;20637;55.770;37.592;2023-07-13T04:28:15;98727.16;;;14.73;72.41
34374;BME280;20637;55.770;37.592;2023-07-13T04:30:40;98722.31;;;14.75;72.51
34374;BME280;20637;55.770;37.592;2023-07-13T04:33:06;98722.13;;;14.77;72.41
34374;BME280;20637;55.770;37.592;2023-07-13T04:35:31;98726.06;;;14.81;72.78
34374;BME280;20637;55.770;37.592;2023-07-13T04:37:56;98714.75;;;14.84;72.50
34374;BME280;20637;55.770;37.592;2023-07-13T04:40:22;98717.28;;;14.86;72.57
34374;BME280;20637;55.770;37.592;2023-07-13T04:42:47;98716.22;;;14.87;72.49
34374;BME280;20637;55.770;37.592;2023-07-13T04:45:13;98707.63;;;14.90;72.37
34374;BME280;20637;55.770;37.592;2023-07-13T04:47:39;98707.19;;;14.93;72.33
34374;BME280;20637;55.770;37.592;2023-07-13T04:50:05;98704.66;;;14.98;72.20
34374;BME280;20637;55.770;37.592;2023-07-13T04:52:30;98707.31;;;15.04;72.19
34374;BME280;20637;55.770;37.592;2023-07-13T04:54:58;98705.44;;;15.05;72.01
34374;BME280;20637;55.770;37.592;2023-07-13T04:57:24;98712.31;;;15.07;72.14
34374;BME280;20637;55.770;37.592;2023-07-13T04:59:49;98712.09;;;15.09;72.38
34374;BME280;20637;55.770;37.592;2023-07-13T05:02:14;98714.38;;;15.12;72.00
34374;BME280;20637;55.770;37.592;2023-07-13T05:04:40;98723.13;;;15.14;71.89
34374;BME280;20637;55.770;37.592;2023-07-13T05:07:05;98727.53;;;15.15;71.92
34374;BME280;20637;55.770;37.592;2023-07-13T05:09:31;98722.28;;;15.20;71.92
34374;BME280;20637;55.770;37.592;2023-07-13T05:11:57;98731.28;;;15.20;71.79
34374;BME280;20637;55.770;37.592;2023-07-13T05:14:22;98733.34;;;15.25;71.80
34374;BME280;20637;55.770;37.592;2023-07-13T05:16:47;98731.78;;;15.36;71.64
34374;BME280;20637;55.770;37.592;2023-07-13T05:19:13;98722.91;;;15.47;71.65
34374;BME280;20637;55.770;37.592;2023-07-13T05:21:38;98726.81;;;15.57;71.58
34374;BME280;20637;55.770;37.592;2023-07-13T05:24:04;98727.56;;;15.71;71.27
34374;BME280;20637;55.770;37.592;2023-07-13T05:26:29;98727.56;;;15.71;71.27
34374;BME280;20637;55.770;37.592;2023-07-13T05:28:54;98723.66;;;16.03;71.24
34374;BME280;20637;55.770;37.592;2023-07-13T05:31:20;98727.56;;;16.14;70.89
34374;BME280;20637;55.770;37.592;2023-07-13T05:33:45;98727.69;;;16.19;70.41
34374;BME280;20637;55.770;37.592;2023-07-13T05:36:11;98722.41;;;16.24;70.10
34374;BME280;20637;55.770;37.592;2023-07-13T05:38:36;98711.44;;;16.31;69.65
34374;BME280;20637;55.770;37.592;2023-07-13T05:41:01;98719.53;;;16.37;69.89
34374;BME280;20637;55.770;37.592;2023-07-13T05:43:27;98709.63;;;16.43;69.57
34374;BME280;20637;55.770;37.592;2023-07-13T05:45:53;98715.53;;;16.40;69.07
34374;BME280;20637;55.770;37.592;2023-07-13T05:48:19;98712.47;;;16.30;68.62
34374;BME280;20637;55.770;37.592;2023-07-13T05:50:44;98723.47;;;16.23;68.14
34374;BME280;20637;55.770;37.592;2023-07-13T05:53:10;98709.09;;;16.16;68.07
34374;BME280;20637;55.770;37.592;2023-07-13T05:55:35;98719.97;;;16.16;68.05
34374;BME280;20637;55.770;37.592;2023-07-13T05:58:01;98711.34;;;16.19;67.97
34374;BME280;20637;55.770;37.592;2023-07-13T06:00:26;98722.19;;;16.26;67.91
34374;BME280;20637;55.770;37.592;2023-07-13T06:02:52;98710.28;;;16.38;67.79
34374;BME280;20637;55.770;37.592;2023-07-13T06:05:17;98715.97;;;16.55;67.76
34374;BME280;20637;55.770;37.592;2023-07-13T06:07:43;98709.31;;;16.69;67.66
34374;BME280;20637;55.770;37.592;2023-07-13T06:10:08;98710.44;;;16.80;67.47
34374;BME280;20637;55.770;37.592;2023-07-13T06:12:34;98701.91;;;16.88;66.92
34374;BME280;20637;55.770;37.592;2023-07-13T06:14:59;98697.81;;;16.97;66.73
34374;BME280;20637;55.770;37.592;2023-07-13T06:17:25;98696.56;;;17.11;66.46
34374;BME280;20637;55.770;37.592;2023-07-13T06:19:50;98690.91;;;17.24;66.83
34374;BME280;20637;55.770;37.592;2023-07-13T06:22:16;98694.72;;;17.35;66.30
34374;BME280;20637;55.770;37.592;2023-07-13T06:24:41;98677.78;;;17.33;64.69
34374;BME280;20637;55.770;37.592;2023-07-13T06:27:06;98681.78;;;17.30;63.85
34374;BME280;20637;55.770;37.592;2023-07-13T06:29:32;98683.69;;;17.30;63.82
34374;BME280;20637;55.770;37.592;2023-07-13T06:31:58;98678.47;;;17.28;63.19
34374;BME280;20637;55.770;37.592;2023-07-13T06:34:23;98673.84;;;17.29;63.13
34374;BME280;20637;55.770;37.592;2023-07-13T06:36:49;98667.22;;;17.36;63.60
34374;BME280;20637;55.770;37.592;2023-07-13T06:39:14;98673.28;;;17.50;63.80
34374;BME280;20637;55.770;37.592;2023-07-13T06:41:40;98676.03;;;17.61;62.71
34374;BME280;20637;55.770;37.592;2023-07-13T06:44:09;98673.44;;;17.67;62.54
34374;BME280;20637;55.770;37.592;2023-07-13T06:46:34;98675.69;;;17.70;61.89
34374;BME280;20637;55.770;37.592;2023-07-13T06:49:00;98688.75;;;17.68;62.36
34374;BME280;20637;55.770;37.592;2023-07-13T06:51:25;98685.06;;;17.62;62.18
34374;BME280;20637;55.770;37.592;2023-07-13T06:53:51;98680.75;;;17.43;61.30
34374;BME280;20637;55.770;37.592;2023-07-13T06:56:16;98691.41;;;17.33;62.01
34374;BME280;20637;55.770;37.592;2023-07-13T06:58:42;98679.78;;;17.26;62.18
34374;BME280;20637;55.770;37.592;2023-07-13T07:01:07;98686.75;;;17.22;62.07
34374;BME280;20637;55.770;37.592;2023-07-13T07:03:33;98689.94;;;17.19;62.30
34374;BME280;20637;55.770;37.592;2023-07-13T07:06:18;98689.81;;;17.13;62.50
34374;BME280;20637;55.770;37.592;2023-07-13T07:08:44;98690.53;;;17.09;62.70
34374;BME280;20637;55.770;37.592;2023-07-13T07:11:17;98686.59;;;17.05;62.29
34374;BME280;20637;55.770;37.592;2023-07-13T07:13:43;98670.00;;;17.06;62.60
34374;BME280;20637;55.770;37.592;2023-07-13T07:16:09;98681.38;;;17.15;62.65
34374;BME280;20637;55.770;37.592;2023-07-13T07:18:34;98685.34;;;17.31;62.78
34374;BME280;20637;55.770;37.592;2023-07-13T07:21:00;98675.41;;;17.48;63.07
34374;BME280;20637;55.770;37.592;2023-07-13T07:23:25;98677.22;;;17.66;62.49
34374;BME280;20637;55.770;37.592;2023-07-13T07:25:51;98674.63;;;17.71;61.43
34374;BME280;20637;55.770;37.592;2023-07-13T07:28:17;98665.13;;;17.73;60.86
34374;BME280;20637;55.770;37.592;2023-07-13T07:30:46;98691.50;;;17.79;60.60
34374;BME280;20637;55.770;37.592;2023-07-13T07:33:11;98693.97;;;17.81;59.84
34374;BME280;20637;55.770;37.592;2023-07-13T07:35:37;98691.97;;;17.76;59.06
34374;BME280;20637;55.770;37.592;2023-07-13T07:38:02;98698.72;;;17.74;59.48
34374;BME280;20637;55.770;37.592;2023-07-13T07:40:28;98699.78;;;17.73;60.10
34374;BME280;20637;55.770;37.592;2023-07-13T07:42:53;98705.97;;;17.68;59.78
34374;BME280;20637;55.770;37.592;2023-07-13T07:45:19;98713.53;;;17.66;60.06
34374;BME280;20637;55.770;37.592;2023-07-13T07:47:44;98714.72;;;17.70;60.21
34374;BME280;20637;55.770;37.592;2023-07-13T07:50:10;98707.97;;;17.73;60.86
34374;BME280;20637;55.770;37.592;2023-07-13T07:52:35;98711.31;;;17.75;60.39
34374;BME280;20637;55.770;37.592;2023-07-13T07:55:01;98705.72;;;17.70;60.28
34374;BME280;20637;55.770;37.592;2023-07-13T07:57:26;98709.41;;;17.64;60.90
34374;BME280;20637;55.770;37.592;2023-07-13T07:59:52;98709.03;;;17.60;60.64
34374;BME280;20637;55.770;37.592;2023-07-13T08:02:17;98711.78;;;17.60;61.35
34374;BME280;20637;55.770;37.592;2023-07-13T08:04:43;98709.88;;;17.60;61.39
34374;BME280;20637;55.770;37.592;2023-07-13T08:07:09;98706.06;;;17.61;61.96
34374;BME280;20637;55.770;37.592;2023-07-13T08:09:34;98705.09;;;17.56;61.85
34374;BME280;20637;55.770;37.592;2023-07-13T08:12:00;98708.66;;;17.56;61.89
34374;BME280;20637;55.770;37.592;2023-07-13T08:14:25;98702.41;;;17.68;62.10
34374;BME280;20637;55.770;37.592;2023-07-13T08:16:50;98711.31;;;17.75;62.05
34374;BME280;20637;55.770;37.592;2023-07-13T08:19:16;98711.31;;;17.75;61.83
34374;BME280;20637;55.770;37.592;2023-07-13T08:21:41;98697.88;;;17.85;62.13
34374;BME280;20637;55.770;37.592;2023-07-13T08:24:08;98700.38;;;17.98;61.67
34374;BME280;20637;55.770;37.592;2023-07-13T08:26:34;98702.50;;;17.96;61.53
34374;BME280;20637;55.770;37.592;2023-07-13T08:28:59;98698.25;;;17.88;61.49
34374;BME280;20637;55.770;37.592;2023-07-13T08:31:25;98702.63;;;17.78;61.27
34374;BME280;20637;55.770;37.592;2023-07-13T08:33:50;98699.91;;;17.78;61.78
34374;BME280;20637;55.770;37.592;2023-07-13T08:36:15;98710.47;;;17.97;60.98
34374;BME280;20637;55.770;37.592;2023-07-13T08:38:41;98715.09;;;17.97;61.02
34374;BME280;20637;55.770;37.592;2023-07-13T08:41:11;98705.97;;;17.80;61.02
34374;BME280;20637;55.770;37.592;2023-07-13T08:43:37;98706.66;;;17.64;61.38
34374;BME280;20637;55.770;37.592;2023-07-13T08:46:11;98692.16;;;17.51;61.45
34374;BME280;20637;55.770;37.592;2023-07-13T08:48:39;98706.13;;;17.43;61.74
34374;BME280;20637;55.770;37.592;2023-07-13T08:54:50;98720.97;;;17.47;62.30
34374;BME280;20637;55.770;37.592;2023-07-13T08:56:56;98729.00;;;17.42;62.56
34374;BME280;20637;55.770;37.592;2023-07-13T08:59:26;98724.38;;;17.43;63.01
34374;BME280;20637;55.770;37.592;2023-07-13T09:04:39;98724.38;;;17.43;63.58
34374;BME280;20637;55.770;37.592;2023-07-13T09:16:58;98746.09;;;17.08;66.17
34374;BME280;20637;55.770;37.592;2023-07-13T09:19:26;98736.59;;;16.99;66.28
34374;BME280;20637;55.770;37.592;2023-07-13T09:21:54;98746.75;;;16.92;66.87
34374;BME280;20637;55.770;37.592;2023-07-13T09:27:09;98745.31;;;16.89;67.18
34374;BME280;20637;55.770;37.592;2023-07-13T09:29:38;98750.41;;;16.86;67.60
34374;BME280;20637;55.770;37.592;2023-07-13T09:32:09;98750.25;;;16.81;68.32
34374;BME280;20637;55.770;37.592;2023-07-13T09:34:37;98745.47;;;16.76;68.06
34374;BME280;20637;55.770;37.592;2023-07-13T09:37:03;98743.00;;;16.75;68.56
34374;BME280;20637;55.770;37.592;2023-07-13T09:39:30;98747.00;;;16.72;68.70
34374;BME280;20637;55.770;37.592;2023-07-13T09:42:17;98741.47;;;16.60;68.93
34374;BME280;20637;55.770;37.592;2023-07-13T09:47:18;98747.66;;;16.49;70.07
34374;BME280;20637;55.770;37.592;2023-07-13T09:49:44;98739.50;;;16.49;69.71
34374;BME280;20637;55.770;37.592;2023-07-13T09:52:11;98738.44;;;16.50;69.95
34374;BME280;20637;55.770;37.592;2023-07-13T09:54:39;98744.56;;;16.46;70.79
34374;BME280;20637;55.770;37.592;2023-07-13T09:57:22;98738.53;;;16.44;71.11
34374;BME280;20637;55.770;37.592;2023-07-13T09:59:49;98736.63;;;16.44;70.94
34374;BME280;20637;55.770;37.592;2023-07-13T10:02:28;98740.41;;;16.43;71.01
34374;BME280;20637;55.770;37.592;2023-07-13T10:05:02;98735.56;;;16.45;70.83
34374;BME280;20637;55.770;37.592;2023-07-13T10:07:29;98736.38;;;16.46;71.16
34374;BME280;20637;55.770;37.592;2023-07-13T10:09:55;98739.75;;;16.48;71.36
34374;BME280;20637;55.770;37.592;2023-07-13T10:12:21;98735.72;;;16.50;70.94
34374;BME280;20637;55.770;37.592;2023-07-13T10:14:48;98742.22;;;16.49;71.01
34374;BME280;20637;55.770;37.592;2023-07-13T10:17:15;98742.22;;;16.49;71.14
34374;BME280;20637;55.770;37.592;2023-07-13T10:19:44;98740.31;;;16.50;71.30
34374;BME280;20637;55.770;37.592;2023-07-13T10:24:54;98743.81;;;16.39;71.08
34374;BME280;20637;55.770;37.592;2023-07-13T10:27:21;98736.63;;;16.26;71.41
34374;BME280;20637;55.770;37.592;2023-07-13T10:32:25;98733.84;;;16.33;71.75
34374;BME280;20637;55.770;37.592;2023-07-13T10:34:50;98730.75;;;16.29;71.80
34374;BME280;20637;55.770;37.592;2023-07-13T10:37:26;98738.75;;;16.24;71.78
34374;BME280;20637;55.770;37.592;2023-07-13T10:39:53;98753.09;;;16.13;71.97
34374;BME280;20637;55.770;37.592;2023-07-13T10:45:18;98754.78;;;16.14;72.49
34374;BME280;20637;55.770;37.592;2023-07-13T10:47:44;98753.41;;;16.05;72.66
34374;BME280;20637;55.770;37.592;2023-07-13T10:50:21;98757.00;;;15.99;72.52
34374;BME280;20637;55.770;37.592;2023-07-13T10:52:50;98757.44;;;15.96;72.71
34374;BME280;20637;55.770;37.592;2023-07-13T10:55:32;98752.69;;;15.91;72.90
34374;BME280;20637;55.770;37.592;2023-07-13T10:58:00;98760.91;;;15.85;72.84
34374;BME280;20637;55.770;37.592;2023-07-13T11:00:25;98760.97;;;15.78;73.59
34374;BME280;20637;55.770;37.592;2023-07-13T11:02:57;98757.41;;;15.78;73.87
34374;BME280;20637;55.770;37.592;2023-07-13T11:05:30;98758.84;;;15.80;73.85
34374;BME280;20637;55.770;37.592;2023-07-13T11:10:55;98751.31;;;15.82;73.86
34374;BME280;20637;55.770;37.592;2023-07-13T11:16:01;98746.13;;;15.99;73.90
34374;BME280;20637;55.770;37.592;2023-07-13T11:18:37;98744.22;;;15.99;73.67
34374;BME280;20637;55.770;37.592;2023-07-13T11:21:12;98747.22;;;15.91;73.68
34374;BME280;20637;55.770;37.592;2023-07-13T11:23:38;98755.00;;;15.88;73.92
34374;BME280;20637;55.770;37.592;2023-07-13T11:26:37;98744.56;;;15.85;73.68
34374;BME280;20637;55.770;37.592;2023-07-13T11:28:52;98748.34;;;15.84;73.81
34374;BME280;20637;55.770;37.592;2023-07-13T11:31:18;98751.53;;;15.81;73.97
34374;BME280;20637;55.770;37.592;2023-07-13T11:33:52;98746.72;;;15.83;73.94
34374;BME280;20637;55.770;37.592;2023-07-13T11:36:19;98744.81;;;15.83;73.83
34374;BME280;20637;55.770;37.592;2023-07-13T11:41:42;98743.59;;;15.79;74.04
34374;BME280;20637;55.770;37.592;2023-07-13T11:44:13;98744.03;;;15.76;73.89
34374;BME280;20637;55.770;37.592;2023-07-13T11:46:43;98732.47;;;15.81;74.20
34374;BME280;20637;55.770;37.592;2023-07-13T11:49:11;98744.97;;;15.88;74.21
34374;BME280;20637;55.770;37.592;2023-07-13T11:51:38;98736.22;;;15.86;74.07
34374;BME280;20637;55.770;37.592;2023-07-13T11:54:05;98742.09;;;15.83;74.63
34374;BME280;20637;55.770;37.592;2023-07-13T11:56:32;98753.97;;;15.89;74.43
34374;BME280;20637;55.770;37.592;2023-07-13T11:59:07;98753.13;;;15.88;74.62
34374;BME280;20637;55.770;37.592;2023-07-13T12:01:33;98753.38;;;15.87;74.72
34374;BME280;20637;55.770;37.592;2023-07-13T12:04:02;98747.31;;;15.85;74.49
34374;BME280;20637;55.770;37.592;2023-07-13T12:06:32;98742.25;;;15.88;74.46
34374;BME280;20637;55.770;37.592;2023-07-13T12:09:02;98741.41;;;15.88;75.05
34374;BME280;20637;55.770;37.592;2023-07-13T12:11:28;98748.97;;;15.86;75.19
34374;BME280;20637;55.770;37.592;2023-07-13T12:13:54;98744.81;;;15.83;75.36
34374;BME280;20637;55.770;37.592;2023-07-13T12:16:28;98747.75;;;15.82;75.63
34374;BME280;20637;55.770;37.592;2023-07-13T12:18:55;98752.56;;;15.80;75.69
34374;BME280;20637;55.770;37.592;2023-07-13T12:21:22;98755.75;;;15.77;75.90
34374;BME280;20637;55.770;37.592;2023-07-13T12:23:48;98743.19;;;15.76;76.10
34374;BME280;20637;55.770;37.592;2023-07-13T12:26:15;98747.44;;;15.71;76.44
34374;BME280;20637;55.770;37.592;2023-07-13T12:28:49;98746.81;;;15.69;76.47
34374;BME280;20637;55.770;37.592;2023-07-13T12:33:55;98738.66;;;15.69;76.59
34374;BME280;20637;55.770;37.592;2023-07-13T12:36:21;98735.72;;;15.71;76.82
34374;BME280;20637;55.770;37.592;2023-07-13T12:38:46;98742.13;;;15.77;76.78
34374;BME280;20637;55.770;37.592;2023-07-13T12:41:12;98735.19;;;15.81;76.86
34374;BME280;20637;55.770;37.592;2023-07-13T12:43:37;98734.75;;;15.84;76.66
34374;BME280;20637;55.770;37.592;2023-07-13T12:46:04;98730.38;;;15.83;76.67
34374;BME280;20637;55.770;37.592;2023-07-13T12:48:37;98726.00;;;15.82;76.67
34374;BME280;20637;55.770;37.592;2023-07-13T12:51:03;98733.53;;;15.80;76.48
34374;BME280;20637;55.770;37.592;2023-07-13T12:53:29;98737.53;;;15.77;76.70
34374;BME280;20637;55.770;37.592;2023-07-13T12:55:59;98731.25;;;15.77;76.82
34374;BME280;20637;55.770;37.592;2023-07-13T12:58:39;98729.00;;;15.73;76.80
34374;BME280;20637;55.770;37.592;2023-07-13T13:01:09;98726.06;;;15.75;76.54
34374;BME280;20637;55.770;37.592;2023-07-13T13:03:37;98722.13;;;15.71;76.87
34374;BME280;20637;55.770;37.592;2023-07-13T13:06:04;98733.66;;;15.66;76.69
34374;BME280;20637;55.770;37.592;2023-07-13T13:08:32;98724.88;;;15.64;76.77
34374;BME280;20637;55.770;37.592;2023-07-13T13:10:57;98734.09;;;15.63;76.84
34374;BME280;20637;55.770;37.592;2023-07-13T13:13:23;98731.41;;;15.63;76.93
34374;BME280;20637;55.770;37.592;2023-07-13T13:15:49;98731.78;;;15.67;77.13
34374;BME280;20637;55.770;37.592;2023-07-13T13:18:18;98735.94;;;15.69;77.03
34374;BME280;20637;55.770;37.592;2023-07-13T13:20:44;98730.28;;;15.71;76.95
34374;BME280;20637;55.770;37.592;2023-07-13T13:23:14;98731.13;;;15.71;77.04
34374;BME280;20637;55.770;37.592;2023-07-13T13:25:43;98731.91;;;15.72;76.91
34374;BME280;20637;55.770;37.592;2023-07-13T13:28:15;98736.75;;;15.70;76.92
34374;BME280;20637;55.770;37.592;2023-07-13T13:30:41;98738.66;;;15.69;76.97
34374;BME280;20637;55.770;37.592;2023-07-13T13:33:09;98729.19;;;15.72;76.86
34374;BME280;20637;55.770;37.592;2023-07-13T13:35:35;98726.47;;;15.72;76.85